createdAt,value
2017-07-16T00:00:15.463Z,0
2017-07-16T00:01:15.450Z,0
2017-07-16T00:02:14.797Z,0
2017-07-16T00:03:15.128Z,0
2017-07-16T00:04:15.398Z,0
2017-07-16T00:05:15.077Z,0
2017-07-16T00:06:15.064Z,0
2017-07-16T00:07:15.352Z,0
2017-07-16T00:08:15.348Z,0
2017-07-16T00:09:15.333Z,0
2017-07-16T00:10:14.388Z,0
2017-07-16T00:11:15.295Z,0
2017-07-16T00:12:14.332Z,0
2017-07-16T00:13:14.627Z,0
2017-07-16T00:14:14.318Z,0
2017-07-16T00:15:14.920Z,0
2017-07-16T00:16:15.217Z,0
2017-07-16T00:17:15.411Z,0
2017-07-16T00:18:14.866Z,0
2017-07-16T00:19:15.167Z,0
2017-07-16T00:20:14.838Z,0
2017-07-16T00:21:14.825Z,0
2017-07-16T00:22:15.109Z,0
2017-07-16T00:23:14.168Z,0
2017-07-16T00:24:15.094Z,0
2017-07-16T00:25:15.077Z,0
2017-07-16T00:26:14.433Z,0
2017-07-16T00:27:14.725Z,0
2017-07-16T00:28:14.403Z,0
2017-07-16T00:29:15.003Z,0
2017-07-16T00:30:14.995Z,0
2017-07-16T00:31:14.660Z,0
2017-07-16T00:32:14.654Z,0
2017-07-16T00:33:14.950Z,0
2017-07-16T00:34:14.925Z,0
2017-07-16T00:35:14.977Z,0
2017-07-16T00:36:14.590Z,0
2017-07-16T00:37:14.572Z,0
2017-07-16T00:38:14.859Z,0
2017-07-16T00:39:14.548Z,0
2017-07-16T00:40:14.832Z,0
2017-07-16T00:41:14.813Z,0
2017-07-16T00:42:14.494Z,0
2017-07-16T00:43:13.853Z,0
2017-07-16T00:44:14.474Z,0
2017-07-16T00:45:14.754Z,0
2017-07-16T00:46:14.739Z,0
2017-07-16T00:47:14.750Z,0
2017-07-16T00:48:14.408Z,0
2017-07-16T00:49:14.389Z,0
2017-07-16T00:50:14.685Z,0
2017-07-16T00:51:14.680Z,0
2017-07-16T00:52:14.074Z,0
2017-07-16T00:53:14.635Z,0
2017-07-16T00:54:14.319Z,0
2017-07-16T00:55:14.607Z,0
2017-07-16T00:56:14.576Z,0
2017-07-16T00:57:13.638Z,0
2017-07-16T00:58:14.564Z,0
2017-07-16T00:59:14.555Z,0
2017-07-16T01:00:14.219Z,0
2017-07-16T01:01:14.214Z,0
2017-07-16T01:02:14.505Z,0
2017-07-16T01:03:14.169Z,0
2017-07-16T01:04:13.546Z,0
2017-07-16T01:05:14.500Z,0
2017-07-16T01:06:14.481Z,0
2017-07-16T01:07:13.817Z,0
2017-07-16T01:08:14.416Z,0
2017-07-16T01:09:14.088Z,0
2017-07-16T01:10:14.070Z,0
2017-07-16T01:11:14.044Z,0
2017-07-16T01:12:14.042Z,0
2017-07-16T01:13:14.335Z,0
2017-07-16T01:14:14.324Z,0
2017-07-16T01:15:13.983Z,0
2017-07-16T01:16:13.680Z,0
2017-07-16T01:17:14.269Z,0
2017-07-16T01:18:13.942Z,0
2017-07-16T01:19:13.316Z,0
2017-07-16T01:20:13.897Z,0
2017-07-16T01:21:14.211Z,0
2017-07-16T01:22:13.570Z,0
2017-07-16T01:23:13.876Z,0
2017-07-16T01:24:13.533Z,0
2017-07-16T01:25:14.143Z,0
2017-07-16T01:26:13.511Z,0
2017-07-16T01:27:13.500Z,0
2017-07-16T01:28:13.781Z,0
2017-07-16T01:29:13.463Z,0
2017-07-16T01:30:13.769Z,0
2017-07-16T01:31:14.043Z,0
2017-07-16T01:32:14.025Z,0
2017-07-16T01:33:14.028Z,0
2017-07-16T01:34:13.379Z,0
2017-07-16T01:35:13.680Z,0
2017-07-16T01:36:13.964Z,0
2017-07-16T01:37:13.638Z,0
2017-07-16T01:38:13.628Z,0
2017-07-16T01:39:13.606Z,0
2017-07-16T01:40:13.600Z,0
2017-07-16T01:41:13.886Z,0
2017-07-16T01:42:13.879Z,0
2017-07-16T01:43:13.869Z,0
2017-07-16T01:44:13.835Z,0
2017-07-16T01:45:13.833Z,0
2017-07-16T01:46:13.808Z,0
2017-07-16T01:47:13.481Z,0
2017-07-16T01:48:12.842Z,0
2017-07-16T01:49:13.455Z,0
2017-07-16T01:50:13.453Z,0
2017-07-16T01:51:13.106Z,0
2017-07-16T01:52:13.732Z,0
2017-07-16T01:53:13.389Z,0
2017-07-16T01:54:13.379Z,0
2017-07-16T01:55:13.355Z,0
2017-07-16T01:56:13.656Z,0
2017-07-16T01:57:13.633Z,0
2017-07-16T01:58:13.662Z,0
2017-07-16T01:59:13.604Z,0
2017-07-16T02:00:13.286Z,0
2017-07-16T02:01:13.251Z,0
2017-07-16T02:02:13.254Z,0
2017-07-16T02:03:13.532Z,0
2017-07-16T02:04:13.214Z,0
2017-07-16T02:05:13.200Z,0
2017-07-16T02:06:13.176Z,0
2017-07-16T02:07:13.478Z,0
2017-07-16T02:08:13.154Z,0
2017-07-16T02:09:13.138Z,0
2017-07-16T02:10:13.119Z,0
2017-07-16T02:11:12.784Z,0
2017-07-16T02:12:13.398Z,0
2017-07-16T02:13:12.754Z,0
2017-07-16T02:14:13.059Z,0
2017-07-16T02:15:13.042Z,0
2017-07-16T02:16:13.026Z,0
2017-07-16T02:17:13.006Z,0
2017-07-16T02:18:12.673Z,0
2017-07-16T02:19:12.666Z,0
2017-07-16T02:20:13.275Z,0
2017-07-16T02:21:12.952Z,0
2017-07-16T02:22:12.615Z,0
2017-07-16T02:23:12.290Z,0
2017-07-16T02:24:12.894Z,0
2017-07-16T02:25:13.189Z,0
2017-07-16T02:26:12.865Z,0
2017-07-16T02:27:12.855Z,0
2017-07-16T02:28:12.837Z,0
2017-07-16T02:29:13.126Z,0
2017-07-16T02:30:12.805Z,0
2017-07-16T02:31:13.098Z,0
2017-07-16T02:32:12.760Z,0
2017-07-16T02:33:12.746Z,0
2017-07-16T02:34:12.431Z,0
2017-07-16T02:35:12.725Z,0
2017-07-16T02:36:12.703Z,0
2017-07-16T02:37:12.689Z,0
2017-07-16T02:38:12.676Z,0
2017-07-16T02:39:12.666Z,0
2017-07-16T02:40:12.339Z,0
2017-07-16T02:41:12.632Z,0
2017-07-16T02:42:12.301Z,0
2017-07-16T02:43:12.905Z,0
2017-07-16T02:44:12.270Z,0
2017-07-16T02:45:12.884Z,0
2017-07-16T02:46:12.237Z,0
2017-07-16T02:47:12.536Z,0
2017-07-16T02:48:12.203Z,0
2017-07-16T02:49:12.179Z,0
2017-07-16T02:50:12.800Z,0
2017-07-16T02:51:12.159Z,0
2017-07-16T02:52:12.760Z,0
2017-07-16T02:53:12.743Z,0
2017-07-16T02:54:12.718Z,0
2017-07-16T02:55:12.412Z,0
2017-07-16T02:56:12.390Z,0
2017-07-16T02:57:12.687Z,0
2017-07-16T02:58:12.682Z,0
2017-07-16T02:59:12.655Z,0
2017-07-16T03:00:12.337Z,0
2017-07-16T03:01:12.314Z,0
2017-07-16T03:02:12.291Z,0
2017-07-16T03:03:12.586Z,0
2017-07-16T03:04:12.574Z,0
2017-07-16T03:05:12.279Z,0
2017-07-16T03:06:12.533Z,0
2017-07-16T03:07:12.519Z,0
2017-07-16T03:08:12.529Z,0
2017-07-16T03:09:12.499Z,0
2017-07-16T03:10:12.168Z,0
2017-07-16T03:11:12.151Z,0
2017-07-16T03:12:11.823Z,0
2017-07-16T03:13:12.437Z,0
2017-07-16T03:14:12.100Z,0
2017-07-16T03:15:12.093Z,0
2017-07-16T03:16:12.391Z,0
2017-07-16T03:17:12.050Z,0
2017-07-16T03:18:11.414Z,0
2017-07-16T03:19:12.338Z,0
2017-07-16T03:20:12.002Z,0
2017-07-16T03:21:11.676Z,0
2017-07-16T03:22:11.973Z,0
2017-07-16T03:23:11.959Z,5
2017-07-16T03:24:11.633Z,5
2017-07-16T03:25:12.238Z,5
2017-07-16T03:26:12.222Z,5
2017-07-16T03:27:12.197Z,5
2017-07-16T03:28:11.875Z,10
2017-07-16T03:29:11.870Z,10
2017-07-16T03:30:10.913Z,10
2017-07-16T03:31:12.142Z,15
2017-07-16T03:32:12.127Z,15
2017-07-16T03:33:11.476Z,15
2017-07-16T03:34:11.772Z,15
2017-07-16T03:35:11.449Z,20
2017-07-16T03:36:11.430Z,20
2017-07-16T03:37:11.719Z,25
2017-07-16T03:38:11.700Z,25
2017-07-16T03:39:11.383Z,25
2017-07-16T03:40:11.369Z,30
2017-07-16T03:41:11.958Z,30
2017-07-16T03:42:11.963Z,35
2017-07-16T03:43:11.947Z,35
2017-07-16T03:44:11.935Z,40
2017-07-16T03:45:11.294Z,40
2017-07-16T03:46:11.584Z,45
2017-07-16T03:47:11.556Z,45
2017-07-16T03:48:11.539Z,50
2017-07-16T03:49:11.849Z,50
2017-07-16T03:50:11.815Z,55
2017-07-16T03:51:11.499Z,60
2017-07-16T03:52:11.792Z,60
2017-07-16T03:53:11.144Z,60
2017-07-16T03:54:11.433Z,60
2017-07-16T03:55:11.430Z,60
2017-07-16T03:56:11.409Z,65
2017-07-16T03:57:11.702Z,65
2017-07-16T03:58:11.377Z,70
2017-07-16T03:59:10.424Z,70
2017-07-16T04:00:10.729Z,70
2017-07-16T04:01:11.019Z,70
2017-07-16T04:02:11.624Z,75
2017-07-16T04:03:11.298Z,75
2017-07-16T04:04:11.599Z,75
2017-07-16T04:05:10.961Z,75
2017-07-16T04:06:10.939Z,75
2017-07-16T04:07:11.233Z,80
2017-07-16T04:08:11.538Z,85
2017-07-16T04:09:11.204Z,85
2017-07-16T04:10:10.555Z,95
2017-07-16T04:11:11.477Z,95
2017-07-16T04:12:11.460Z,95
2017-07-16T04:13:11.138Z,95
2017-07-16T04:14:11.422Z,100
2017-07-16T04:15:11.409Z,105
2017-07-16T04:16:11.086Z,105
2017-07-16T04:17:11.109Z,110
2017-07-16T04:18:11.362Z,105
2017-07-16T04:19:11.041Z,105
2017-07-16T04:20:11.023Z,110
2017-07-16T04:21:11.030Z,110
2017-07-16T04:22:10.676Z,115
2017-07-16T04:23:10.659Z,125
2017-07-16T04:24:10.642Z,135
2017-07-16T04:25:10.628Z,140
2017-07-16T04:26:10.601Z,145
2017-07-16T04:27:11.203Z,145
2017-07-16T04:28:11.207Z,155
2017-07-16T04:29:11.173Z,160
2017-07-16T04:30:11.163Z,165
2017-07-16T04:31:11.157Z,165
2017-07-16T04:32:10.816Z,165
2017-07-16T04:33:11.125Z,165
2017-07-16T04:34:11.082Z,160
2017-07-16T04:35:10.452Z,150
2017-07-16T04:36:11.059Z,155
2017-07-16T04:37:11.038Z,160
2017-07-16T04:38:11.019Z,165
2017-07-16T04:39:10.391Z,180
2017-07-16T04:40:10.688Z,180
2017-07-16T04:41:10.981Z,185
2017-07-16T04:42:10.969Z,185
2017-07-16T04:43:10.952Z,185
2017-07-16T04:44:10.604Z,185
2017-07-16T04:45:10.912Z,185
2017-07-16T04:46:10.887Z,185
2017-07-16T04:47:10.266Z,185
2017-07-16T04:48:10.870Z,185
2017-07-16T04:49:10.542Z,185
2017-07-16T04:50:10.203Z,195
2017-07-16T04:51:10.501Z,210
2017-07-16T04:52:10.179Z,230
2017-07-16T04:53:10.460Z,245
2017-07-16T04:54:10.145Z,250
2017-07-16T04:55:10.740Z,250
2017-07-16T04:56:10.414Z,265
2017-07-16T04:57:10.402Z,270
2017-07-16T04:58:10.698Z,265
2017-07-16T04:59:10.369Z,250
2017-07-16T05:00:10.665Z,245
2017-07-16T05:01:10.650Z,250
2017-07-16T05:02:10.313Z,245
2017-07-16T05:03:10.610Z,235
2017-07-16T05:04:10.590Z,235
2017-07-16T05:05:10.272Z,245
2017-07-16T05:06:10.566Z,265
2017-07-16T05:07:10.534Z,275
2017-07-16T05:08:10.218Z,270
2017-07-16T05:09:10.201Z,285
2017-07-16T05:10:09.878Z,315
2017-07-16T05:11:10.176Z,330
2017-07-16T05:12:10.155Z,355
2017-07-16T05:13:10.446Z,365
2017-07-16T05:14:10.127Z,370
2017-07-16T05:15:10.412Z,370
2017-07-16T05:16:09.773Z,390
2017-07-16T05:17:10.389Z,430
2017-07-16T05:18:09.754Z,430
2017-07-16T05:19:10.043Z,420
2017-07-16T05:20:10.024Z,420
2017-07-16T05:21:09.706Z,415
2017-07-16T05:22:09.693Z,445
2017-07-16T05:23:09.965Z,470
2017-07-16T05:24:09.645Z,445
2017-07-16T05:25:10.251Z,445
2017-07-16T05:26:09.623Z,435
2017-07-16T05:27:09.912Z,440
2017-07-16T05:28:10.199Z,420
2017-07-16T05:29:10.188Z,445
2017-07-16T05:30:09.243Z,420
2017-07-16T05:31:09.855Z,405
2017-07-16T05:32:09.526Z,475
2017-07-16T05:33:10.138Z,495
2017-07-16T05:34:09.491Z,475
2017-07-16T05:35:09.776Z,440
2017-07-16T05:36:09.763Z,440
2017-07-16T05:37:10.058Z,455
2017-07-16T05:38:09.420Z,500
2017-07-16T05:39:09.105Z,505
2017-07-16T05:40:09.695Z,505
2017-07-16T05:41:09.381Z,510
2017-07-16T05:42:09.658Z,520
2017-07-16T05:43:09.963Z,545
2017-07-16T05:44:09.640Z,585
2017-07-16T05:45:09.313Z,600
2017-07-16T05:46:09.284Z,580
2017-07-16T05:47:09.591Z,605
2017-07-16T05:48:09.260Z,590
2017-07-16T05:49:09.232Z,600
2017-07-16T05:50:08.910Z,535
2017-07-16T05:51:09.527Z,555
2017-07-16T05:52:08.887Z,555
2017-07-16T05:53:08.866Z,580
2017-07-16T05:54:09.474Z,605
2017-07-16T05:55:08.826Z,580
2017-07-16T05:56:09.456Z,565
2017-07-16T05:57:09.417Z,600
2017-07-16T05:58:09.721Z,645
2017-07-16T05:59:09.394Z,600
2017-07-16T06:00:09.377Z,670
2017-07-16T06:01:09.059Z,700
2017-07-16T06:02:09.362Z,685
2017-07-16T06:03:09.638Z,650
2017-07-16T06:04:09.615Z,675
2017-07-16T06:05:08.988Z,730
2017-07-16T06:06:09.287Z,730
2017-07-16T06:07:09.260Z,765
2017-07-16T06:08:09.263Z,810
2017-07-16T06:09:08.929Z,855
2017-07-16T06:10:08.941Z,1050
2017-07-16T06:11:09.199Z,1015
2017-07-16T06:12:09.200Z,1005
2017-07-16T06:13:08.541Z,995
2017-07-16T06:14:08.840Z,920
2017-07-16T06:15:08.833Z,1020
2017-07-16T06:16:09.440Z,1100
2017-07-16T06:17:09.412Z,1075
2017-07-16T06:18:08.781Z,1030
2017-07-16T06:19:09.070Z,1130
2017-07-16T06:20:08.732Z,1115
2017-07-16T06:21:09.055Z,970
2017-07-16T06:22:08.718Z,975
2017-07-16T06:23:09.005Z,875
2017-07-16T06:24:09.000Z,945
2017-07-16T06:25:08.676Z,965
2017-07-16T06:26:08.961Z,895
2017-07-16T06:27:08.636Z,1045
2017-07-16T06:28:08.622Z,1105
2017-07-16T06:29:08.903Z,1190
2017-07-16T06:30:08.907Z,1200
2017-07-16T06:31:09.189Z,1050
2017-07-16T06:32:08.865Z,1140
2017-07-16T06:33:08.534Z,1160
2017-07-16T06:34:08.209Z,1055
2017-07-16T06:35:09.129Z,1100
2017-07-16T06:36:08.794Z,1255
2017-07-16T06:37:08.789Z,1165
2017-07-16T06:38:08.452Z,1230
2017-07-16T06:39:08.750Z,1460
2017-07-16T06:40:08.740Z,1490
2017-07-16T06:41:09.017Z,1255
2017-07-16T06:42:09.006Z,1150
2017-07-16T06:43:08.991Z,1025
2017-07-16T06:44:08.663Z,1025
2017-07-16T06:45:08.657Z,965
2017-07-16T06:46:07.700Z,955
2017-07-16T06:47:08.609Z,925
2017-07-16T06:48:08.902Z,920
2017-07-16T06:49:08.268Z,1015
2017-07-16T06:50:08.579Z,1090
2017-07-16T06:51:08.233Z,1115
2017-07-16T06:52:08.842Z,1025
2017-07-16T06:53:08.520Z,985
2017-07-16T06:54:08.858Z,1000
2017-07-16T06:55:08.501Z,1040
2017-07-16T06:56:08.783Z,1150
2017-07-16T06:57:08.449Z,1100
2017-07-16T06:58:08.757Z,1130
2017-07-16T06:59:08.124Z,1145
2017-07-16T07:00:08.711Z,1215
2017-07-16T07:01:08.399Z,1170
2017-07-16T07:02:08.695Z,1260
2017-07-16T07:03:08.049Z,1240
2017-07-16T07:04:08.668Z,1380
2017-07-16T07:05:08.028Z,1395
2017-07-16T07:06:08.018Z,1205
2017-07-16T07:07:07.991Z,1190
2017-07-16T07:08:08.591Z,1385
2017-07-16T07:09:07.966Z,1465
2017-07-16T07:10:07.326Z,1430
2017-07-16T07:11:08.258Z,1570
2017-07-16T07:12:07.916Z,1490
2017-07-16T07:13:08.543Z,1295
2017-07-16T07:14:07.894Z,1700
2017-07-16T07:15:07.876Z,1865
2017-07-16T07:16:07.556Z,2770
2017-07-16T07:17:07.850Z,1900
2017-07-16T07:18:07.520Z,1905
2017-07-16T07:19:07.828Z,1600
2017-07-16T07:20:08.434Z,1470
2017-07-16T07:21:07.795Z,2015
2017-07-16T07:22:08.118Z,2090
2017-07-16T07:23:07.469Z,1610
2017-07-16T07:24:08.360Z,2880
2017-07-16T07:25:07.426Z,3055
2017-07-16T07:26:07.721Z,2045
2017-07-16T07:27:08.021Z,2625
2017-07-16T07:28:07.386Z,2650
2017-07-16T07:29:08.015Z,2560
2017-07-16T07:30:08.281Z,1910
2017-07-16T07:31:07.960Z,2515
2017-07-16T07:32:08.255Z,2640
2017-07-16T07:33:07.950Z,2180
2017-07-16T07:34:07.925Z,2220
2017-07-16T07:35:07.287Z,2160
2017-07-16T07:36:07.911Z,1960
2017-07-16T07:37:07.893Z,2580
2017-07-16T07:38:07.559Z,2615
2017-07-16T07:39:08.164Z,2800
2017-07-16T07:40:07.859Z,2655
2017-07-16T07:41:07.839Z,3275
2017-07-16T07:42:07.516Z,2360
2017-07-16T07:43:07.811Z,2305
2017-07-16T07:44:07.807Z,1850
2017-07-16T07:45:07.781Z,2870
2017-07-16T07:46:07.778Z,3660
2017-07-16T07:47:07.141Z,2305
2017-07-16T07:48:07.758Z,3225
2017-07-16T07:49:07.733Z,2965
2017-07-16T07:50:07.409Z,1815
2017-07-16T07:51:07.711Z,2620
2017-07-16T07:52:08.009Z,1720
2017-07-16T07:53:07.693Z,1855
2017-07-16T07:54:07.675Z,2175
2017-07-16T07:55:07.354Z,3545
2017-07-16T07:56:07.657Z,1150
2017-07-16T07:57:07.637Z,1055
2017-07-16T07:58:07.011Z,1405
2017-07-16T07:59:06.992Z,1800
2017-07-16T08:00:07.280Z,1495
2017-07-16T08:01:07.595Z,1245
2017-07-16T08:02:07.277Z,1185
2017-07-16T08:03:07.875Z,1135
2017-07-16T08:04:07.539Z,1375
2017-07-16T08:05:07.540Z,1370
2017-07-16T08:06:07.210Z,1340
2017-07-16T08:07:07.518Z,1270
2017-07-16T08:08:07.496Z,1115
2017-07-16T08:09:07.497Z,945
2017-07-16T08:10:07.166Z,850
2017-07-16T08:11:07.773Z,1070
2017-07-16T08:12:07.128Z,1200
2017-07-16T08:13:06.818Z,1100
2017-07-16T08:14:07.105Z,1335
2017-07-16T08:15:07.402Z,1485
2017-07-16T08:16:07.717Z,1365
2017-07-16T08:17:07.382Z,1070
2017-07-16T08:18:07.375Z,1035
2017-07-16T08:19:06.735Z,1105
2017-07-16T08:20:07.054Z,1305
2017-07-16T08:21:07.038Z,1450
2017-07-16T08:22:07.001Z,1705
2017-07-16T08:23:07.307Z,1340
2017-07-16T08:24:07.276Z,1365
2017-07-16T08:25:06.978Z,1545
2017-07-16T08:26:07.271Z,1820
2017-07-16T08:27:07.265Z,2195
2017-07-16T08:28:06.939Z,3120
2017-07-16T08:29:07.213Z,3735
2017-07-16T08:30:07.216Z,2100
2017-07-16T08:31:06.886Z,1555
2017-07-16T08:32:07.188Z,3220
2017-07-16T08:33:07.482Z,3895
2017-07-16T08:34:07.154Z,4080
2017-07-16T08:35:06.529Z,3290
2017-07-16T08:36:06.830Z,3880
2017-07-16T08:37:07.129Z,4090
2017-07-16T08:38:06.497Z,3505
2017-07-16T08:39:07.100Z,3320
2017-07-16T08:40:06.781Z,3810
2017-07-16T08:41:06.759Z,3930
2017-07-16T08:42:07.417Z,4040
2017-07-16T08:43:07.356Z,4400
2017-07-16T08:44:06.720Z,3745
2017-07-16T08:45:07.071Z,3370
2017-07-16T08:46:07.382Z,5020
2017-07-16T08:47:07.311Z,2315
2017-07-16T08:48:06.368Z,2475
2017-07-16T08:49:07.298Z,2300
2017-07-16T08:50:06.967Z,1680
2017-07-16T08:51:06.964Z,1695
2017-07-16T08:52:06.950Z,1900
2017-07-16T08:53:06.946Z,1835
2017-07-16T08:54:06.929Z,1810
2017-07-16T08:55:07.225Z,1600
2017-07-16T08:56:07.215Z,1505
2017-07-16T08:57:07.190Z,1380
2017-07-16T08:58:07.202Z,1300
2017-07-16T08:59:06.878Z,1145
2017-07-16T09:00:06.855Z,1165
2017-07-16T09:01:06.853Z,1230
2017-07-16T09:02:06.562Z,2010
2017-07-16T09:03:07.173Z,2385
2017-07-16T09:04:07.136Z,3000
2017-07-16T09:05:07.108Z,3280
2017-07-16T09:06:06.816Z,2285
2017-07-16T09:07:06.771Z,6720
2017-07-16T09:08:07.090Z,4005
2017-07-16T09:09:07.076Z,2590
2017-07-16T09:10:06.746Z,2770
2017-07-16T09:11:07.037Z,2550
2017-07-16T09:12:06.415Z,2045
2017-07-16T09:13:06.143Z,2455
2017-07-16T09:14:06.700Z,1715
2017-07-16T09:15:06.687Z,1535
2017-07-16T09:16:06.362Z,1280
2017-07-16T09:17:06.979Z,1365
2017-07-16T09:18:06.956Z,1945
2017-07-16T09:19:06.638Z,4230
2017-07-16T09:20:06.981Z,4525
2017-07-16T09:21:06.629Z,3105
2017-07-16T09:22:06.926Z,4165
2017-07-16T09:23:05.966Z,2175
2017-07-16T09:24:06.899Z,5585
2017-07-16T09:25:06.584Z,4400
2017-07-16T09:26:06.880Z,2855
2017-07-16T09:27:06.242Z,3410
2017-07-16T09:28:06.545Z,1930
2017-07-16T09:29:06.548Z,2160
2017-07-16T09:30:05.889Z,1585
2017-07-16T09:31:06.826Z,1520
2017-07-16T09:32:06.502Z,1465
2017-07-16T09:33:05.541Z,1275
2017-07-16T09:34:06.482Z,1110
2017-07-16T09:35:06.761Z,1310
2017-07-16T09:36:05.837Z,2000
2017-07-16T09:37:06.442Z,4810
2017-07-16T09:38:06.111Z,4545
2017-07-16T09:39:06.419Z,4460
2017-07-16T09:40:06.713Z,4830
2017-07-16T09:41:05.773Z,4435
2017-07-16T09:42:06.693Z,4205
2017-07-16T09:43:06.671Z,3585
2017-07-16T09:44:06.348Z,4740
2017-07-16T09:45:06.348Z,5110
2017-07-16T09:46:06.641Z,5020
2017-07-16T09:47:06.629Z,4990
2017-07-16T09:48:06.326Z,2820
2017-07-16T09:49:06.607Z,2285
2017-07-16T09:50:05.974Z,3900
2017-07-16T09:51:06.589Z,1330
2017-07-16T09:52:06.260Z,1280
2017-07-16T09:53:06.571Z,1365
2017-07-16T09:54:06.246Z,1365
2017-07-16T09:55:05.931Z,4580
2017-07-16T09:56:06.226Z,4880
2017-07-16T09:57:06.530Z,4580
2017-07-16T09:58:05.580Z,5155
2017-07-16T09:59:06.181Z,2460
2017-07-16T10:00:06.480Z,1885
2017-07-16T10:01:05.843Z,2960
2017-07-16T10:02:06.458Z,1990
2017-07-16T10:03:06.464Z,3010
2017-07-16T10:04:05.819Z,4565
2017-07-16T10:05:06.121Z,4045
2017-07-16T10:06:06.095Z,2665
2017-07-16T10:07:06.100Z,2020
2017-07-16T10:08:06.102Z,1515
2017-07-16T10:09:06.397Z,1400
2017-07-16T10:10:05.758Z,1685
2017-07-16T10:11:05.742Z,2585
2017-07-16T10:12:05.730Z,2165
2017-07-16T10:13:05.709Z,1650
2017-07-16T10:14:05.709Z,1515
2017-07-16T10:15:05.390Z,2055
2017-07-16T10:16:05.441Z,3695
2017-07-16T10:17:05.995Z,5515
2017-07-16T10:18:05.349Z,5925
2017-07-16T10:19:05.964Z,3785
2017-07-16T10:20:05.958Z,3830
2017-07-16T10:21:06.256Z,5545
2017-07-16T10:22:06.237Z,1680
2017-07-16T10:23:06.224Z,5430
2017-07-16T10:24:05.911Z,5250
2017-07-16T10:25:05.890Z,1630
2017-07-16T10:26:05.579Z,2395
2017-07-16T10:27:05.562Z,1660
2017-07-16T10:28:06.175Z,5385
2017-07-16T10:29:05.547Z,3405
2017-07-16T10:30:06.169Z,6920
2017-07-16T10:31:05.829Z,5120
2017-07-16T10:32:05.824Z,4950
2017-07-16T10:33:05.817Z,5430
2017-07-16T10:34:05.498Z,6160
2017-07-16T10:35:06.096Z,3660
2017-07-16T10:36:05.475Z,5660
2017-07-16T10:37:05.775Z,5610
2017-07-16T10:38:05.761Z,1830
2017-07-16T10:39:06.067Z,2160
2017-07-16T10:40:05.747Z,2085
2017-07-16T10:41:05.428Z,1910
2017-07-16T10:42:05.732Z,1795
2017-07-16T10:43:05.922Z,1685
2017-07-16T10:44:06.245Z,1605
2017-07-16T10:45:05.079Z,1560
2017-07-16T10:46:05.683Z,1530
2017-07-16T10:47:05.355Z,1605
2017-07-16T10:48:05.368Z,6160
2017-07-16T10:49:05.347Z,5120
2017-07-16T10:50:05.653Z,5715
2017-07-16T10:51:05.956Z,4740
2017-07-16T10:52:05.317Z,3995
2017-07-16T10:53:05.925Z,3945
2017-07-16T10:54:05.601Z,3890
2017-07-16T10:55:05.906Z,3260
2017-07-16T10:56:05.892Z,5505
2017-07-16T10:57:05.588Z,2125
2017-07-16T10:58:05.259Z,5280
2017-07-16T10:59:05.538Z,5710
2017-07-16T11:00:05.550Z,2665
2017-07-16T11:01:04.918Z,5425
2017-07-16T11:02:05.847Z,5280
2017-07-16T11:03:05.507Z,5000
2017-07-16T11:04:05.505Z,4950
2017-07-16T11:05:05.528Z,5860
2017-07-16T11:06:05.489Z,5425
2017-07-16T11:07:05.169Z,4310
2017-07-16T11:08:05.470Z,4825
2017-07-16T11:09:05.156Z,5560
2017-07-16T11:10:05.453Z,3045
2017-07-16T11:11:05.744Z,5175
2017-07-16T11:12:05.433Z,4670
2017-07-16T11:13:05.721Z,5250
2017-07-16T11:14:05.710Z,5015
2017-07-16T11:15:05.601Z,4620
2017-07-16T11:16:05.696Z,5055
2017-07-16T11:17:05.383Z,5395
2017-07-16T11:18:04.432Z,5265
2017-07-16T11:19:04.749Z,5540
2017-07-16T11:20:05.659Z,5725
2017-07-16T11:21:05.862Z,5535
2017-07-16T11:22:05.338Z,5195
2017-07-16T11:23:05.336Z,5100
2017-07-16T11:24:05.314Z,4540
2017-07-16T11:25:05.505Z,4510
2017-07-16T11:26:05.298Z,3770
2017-07-16T11:27:04.664Z,4545
2017-07-16T11:28:05.318Z,4555
2017-07-16T11:29:05.280Z,4990
2017-07-16T11:30:04.976Z,5505
2017-07-16T11:31:05.279Z,1730
2017-07-16T11:32:04.931Z,1360
2017-07-16T11:33:04.910Z,1410
2017-07-16T11:34:05.219Z,1480
2017-07-16T11:35:05.213Z,2055
2017-07-16T11:36:04.587Z,5595
2017-07-16T11:37:05.505Z,5155
2017-07-16T11:38:05.502Z,5850
2017-07-16T11:39:04.862Z,5495
2017-07-16T11:40:05.163Z,4920
2017-07-16T11:41:05.187Z,4480
2017-07-16T11:42:05.455Z,3980
2017-07-16T11:43:05.138Z,4775
2017-07-16T11:44:05.445Z,5100
2017-07-16T11:45:05.423Z,5080
2017-07-16T11:46:04.801Z,5665
2017-07-16T11:47:05.104Z,6240
2017-07-16T11:48:05.106Z,2095
2017-07-16T11:49:05.092Z,1955
2017-07-16T11:50:05.059Z,2040
2017-07-16T11:51:05.066Z,1875
2017-07-16T11:52:04.757Z,2240
2017-07-16T11:53:04.941Z,2190
2017-07-16T11:54:05.042Z,1960
2017-07-16T11:55:04.716Z,1550
2017-07-16T11:56:05.340Z,1425
2017-07-16T11:57:05.020Z,1620
2017-07-16T11:58:05.346Z,1930
2017-07-16T11:59:05.517Z,2480
2017-07-16T12:00:04.983Z,7145
2017-07-16T12:01:05.278Z,2005
2017-07-16T12:02:04.971Z,2945
2017-07-16T12:03:04.976Z,2310
2017-07-16T12:04:04.642Z,2840
2017-07-16T12:05:04.635Z,5150
2017-07-16T12:06:04.952Z,2395
2017-07-16T12:07:05.236Z,2630
2017-07-16T12:08:04.925Z,3555
2017-07-16T12:09:04.598Z,3155
2017-07-16T12:10:05.204Z,2695
2017-07-16T12:11:04.895Z,2920
2017-07-16T12:12:04.880Z,3350
2017-07-16T12:13:04.556Z,3060
2017-07-16T12:14:04.551Z,2610
2017-07-16T12:15:04.847Z,3540
2017-07-16T12:16:04.847Z,3650
2017-07-16T12:17:05.153Z,4385
2017-07-16T12:18:04.832Z,4910
2017-07-16T12:19:04.821Z,5475
2017-07-16T12:20:04.499Z,3190
2017-07-16T12:21:04.513Z,2150
2017-07-16T12:22:05.089Z,2590
2017-07-16T12:23:04.782Z,3345
2017-07-16T12:24:05.086Z,2660
2017-07-16T12:25:04.453Z,2515
2017-07-16T12:26:04.463Z,2520
2017-07-16T12:27:04.457Z,3615
2017-07-16T12:28:05.059Z,2525
2017-07-16T12:29:05.049Z,2080
2017-07-16T12:30:04.722Z,4155
2017-07-16T12:31:05.037Z,1675
2017-07-16T12:32:04.720Z,1740
2017-07-16T12:33:04.707Z,3085
2017-07-16T12:34:04.074Z,5450
2017-07-16T12:35:04.380Z,4715
2017-07-16T12:36:04.691Z,5570
2017-07-16T12:37:04.895Z,5240
2017-07-16T12:38:18.602Z,3820
2017-07-16T12:39:04.654Z,2480
2017-07-16T12:40:04.027Z,3130
2017-07-16T12:41:04.625Z,1890
2017-07-16T12:42:05.136Z,1300
2017-07-16T12:43:04.609Z,1335
2017-07-16T12:44:04.918Z,1520
2017-07-16T12:45:04.600Z,1610
2017-07-16T12:46:04.290Z,1400
2017-07-16T12:47:04.882Z,1285
2017-07-16T12:48:04.886Z,1305
2017-07-16T12:49:04.884Z,1515
2017-07-16T12:50:04.240Z,1670
2017-07-16T12:51:04.559Z,1575
2017-07-16T12:52:04.530Z,2640
2017-07-16T12:53:04.214Z,3105
2017-07-16T12:54:04.218Z,1420
2017-07-16T12:55:04.501Z,1660
2017-07-16T12:56:04.182Z,2685
2017-07-16T12:57:04.803Z,4350
2017-07-16T12:58:04.490Z,2815
2017-07-16T12:59:04.776Z,1945
2017-07-16T13:00:04.460Z,4065
2017-07-16T13:01:04.455Z,5810
2017-07-16T13:02:04.754Z,4460
2017-07-16T13:03:04.752Z,5405
2017-07-16T13:04:04.635Z,2125
2017-07-16T13:05:04.408Z,1775
2017-07-16T13:06:04.084Z,1705
2017-07-16T13:07:04.076Z,1960
2017-07-16T13:08:04.390Z,1575
2017-07-16T13:09:04.373Z,1585
2017-07-16T13:10:04.284Z,1605
2017-07-16T13:11:04.655Z,1605
2017-07-16T13:12:04.673Z,1880
2017-07-16T13:13:04.039Z,2150
2017-07-16T13:14:04.329Z,1855
2017-07-16T13:15:04.239Z,1585
2017-07-16T13:16:18.264Z,2020
2017-07-16T13:17:04.296Z,3305
2017-07-16T13:18:03.985Z,1420
2017-07-16T13:19:03.964Z,1500
2017-07-16T13:20:03.953Z,2300
2017-07-16T13:21:04.264Z,2745
2017-07-16T13:22:03.937Z,2300
2017-07-16T13:23:04.543Z,1485
2017-07-16T13:24:04.538Z,1485
2017-07-16T13:25:04.220Z,1835
2017-07-16T13:26:04.215Z,2235
2017-07-16T13:27:04.191Z,2330
2017-07-16T13:28:04.220Z,2035
2017-07-16T13:29:04.178Z,1900
2017-07-16T13:30:04.483Z,2910
2017-07-16T13:31:04.158Z,2760
2017-07-16T13:32:04.144Z,5465
2017-07-16T13:33:03.830Z,3995
2017-07-16T13:34:03.820Z,2280
2017-07-16T13:35:03.814Z,3030
2017-07-16T13:36:03.526Z,1790
2017-07-16T13:37:03.799Z,1870
2017-07-16T13:38:04.409Z,1675
2017-07-16T13:39:04.109Z,1760
2017-07-16T13:40:04.383Z,1725
2017-07-16T13:41:04.386Z,1405
2017-07-16T13:42:04.356Z,1275
2017-07-16T13:43:04.349Z,1450
2017-07-16T13:44:04.032Z,1895
2017-07-16T13:45:04.019Z,1960
2017-07-16T13:46:04.008Z,2360